createdAt,value
2019-05-06T00:01:28.885Z,7.47
2019-05-06T00:04:00.938Z,7.00
2019-05-06T00:06:30.673Z,6.60
2019-05-06T00:09:00.742Z,6.73
2019-05-06T00:11:30.790Z,7.23
2019-05-06T00:14:00.859Z,7.40
2019-05-06T00:16:31.040Z,6.83
2019-05-06T00:19:01.103Z,7.20
2019-05-06T00:21:31.123Z,7.40
2019-05-06T00:24:01.183Z,6.80
2019-05-06T00:26:56.902Z,7.33
2019-05-06T00:29:30.160Z,7.73
2019-05-06T00:32:00.287Z,7.10
2019-05-06T00:34:30.395Z,6.83
2019-05-06T00:37:00.410Z,7.20
2019-05-06T00:39:40.820Z,8.10
2019-05-06T00:42:35.965Z,8.00
2019-05-06T00:45:07.334Z,7.33
2019-05-06T00:47:37.616Z,8.03
2019-05-06T00:50:08.223Z,8.17
2019-05-06T00:52:38.747Z,7.40
2019-05-06T00:55:09.233Z,7.57
2019-05-06T00:57:45.666Z,8.80
2019-05-06T01:00:18.392Z,8.33
2019-05-06T01:02:48.564Z,7.97
2019-05-06T01:05:18.854Z,8.00
2019-05-06T01:07:49.136Z,8.40
2019-05-06T01:10:24.354Z,8.87
2019-05-06T01:13:28.554Z,8.90
2019-05-06T01:15:58.934Z,9.17
2019-05-06T01:18:29.070Z,9.60
2019-05-06T01:21:11.698Z,8.33
2019-05-06T01:23:43.998Z,8.50
2019-05-06T01:26:15.572Z,8.10
2019-05-06T01:28:46.536Z,8.10
2019-05-06T01:31:16.855Z,8.10
2019-05-06T01:33:47.007Z,8.70
2019-05-06T01:36:17.275Z,8.93
2019-05-06T01:39:21.820Z,9.10
2019-05-06T01:41:57.888Z,8.33
2019-05-06T01:44:28.244Z,8.73
2019-05-06T01:46:58.392Z,9.40
2019-05-06T01:49:28.600Z,9.00
2019-05-06T01:51:58.762Z,8.97
2019-05-06T01:54:28.890Z,9.67
2019-05-06T01:56:59.040Z,10.10
2019-05-06T01:59:29.165Z,9.40
2019-05-06T02:02:01.099Z,9.73
2019-05-06T02:04:33.569Z,9.37
2019-05-06T02:07:03.960Z,10.13
2019-05-06T02:09:34.490Z,10.00
2019-05-06T02:12:04.948Z,10.03
2019-05-06T02:14:36.935Z,10.10
2019-05-06T02:17:07.030Z,10.40
2019-05-06T02:19:38.204Z,9.50
2019-05-06T02:22:27.322Z,10.40
2019-05-06T02:25:01.054Z,10.57
2019-05-06T02:27:31.171Z,10.07
2019-05-06T02:30:11.463Z,9.57
2019-05-06T02:33:04.348Z,10.33
2019-05-06T02:35:45.399Z,9.83
2019-05-06T02:38:32.663Z,9.70
2019-05-06T02:40:58.034Z,9.90
2019-05-06T02:43:28.168Z,9.37
2019-05-06T02:45:59.075Z,9.80
2019-05-06T02:48:47.077Z,9.53
2019-05-06T02:51:19.254Z,9.53
2019-05-06T02:53:49.324Z,9.50
2019-05-06T02:56:23.829Z,9.13
2019-05-06T02:58:53.694Z,9.00
2019-05-06T03:01:24.099Z,9.13
2019-05-06T03:03:54.160Z,9.17
2019-05-06T03:06:24.253Z,8.73
2019-05-06T03:08:54.539Z,8.70
2019-05-06T03:11:24.618Z,8.83
2019-05-06T03:13:54.727Z,8.83
2019-05-06T03:16:24.933Z,8.67
2019-05-06T03:18:55.093Z,8.57
2019-05-06T03:21:44.755Z,8.43
2019-05-06T03:24:43.805Z,8.57
2019-05-06T03:27:14.398Z,8.60
2019-05-06T03:29:44.909Z,8.33
2019-05-06T03:32:22.162Z,8.60
2019-05-06T03:35:08.993Z,8.30
2019-05-06T03:37:19.113Z,8.43
2019-05-06T03:39:52.642Z,8.47
2019-05-06T03:42:24.400Z,7.97
2019-05-06T03:44:58.712Z,8.53
2019-05-06T03:47:43.495Z,8.63
2019-05-06T03:50:13.358Z,8.40
2019-05-06T03:52:44.185Z,7.90
2019-05-06T03:55:15.568Z,8.30
2019-05-06T03:57:47.228Z,8.53
2019-05-06T04:00:18.377Z,8.20
2019-05-06T04:02:48.502Z,8.40
2019-05-06T04:05:18.663Z,8.27
2019-05-06T04:07:49.464Z,8.60
2019-05-06T04:10:19.537Z,8.20
2019-05-06T04:12:53.566Z,8.33
2019-05-06T04:15:26.778Z,8.10
2019-05-06T04:18:03.855Z,8.23
2019-05-06T04:20:53.219Z,8.33
2019-05-06T04:23:38.641Z,8.03
2019-05-06T04:26:16.606Z,8.13
2019-05-06T04:28:46.896Z,8.37
2019-05-06T04:31:17.052Z,9.20
2019-05-06T04:34:05.309Z,7.93
2019-05-06T04:36:19.266Z,8.57
2019-05-06T04:38:49.399Z,8.20
2019-05-06T04:41:23.199Z,8.60
2019-05-06T04:43:53.354Z,8.00
2019-05-06T04:46:23.747Z,9.10
2019-05-06T04:48:54.608Z,8.20
2019-05-06T04:51:25.133Z,8.30
2019-05-06T04:53:55.422Z,8.07
2019-05-06T04:56:25.633Z,7.80
2019-05-06T04:58:55.922Z,8.37
2019-05-06T05:01:26.132Z,8.50
2019-05-06T05:03:57.128Z,8.23
2019-05-06T05:06:27.301Z,7.90
2019-05-06T05:08:57.866Z,8.10
2019-05-06T05:11:58.924Z,7.97
2019-05-06T05:15:00.320Z,8.03
2019-05-06T05:17:49.443Z,8.23
2019-05-06T05:20:33.463Z,8.03
2019-05-06T05:22:52.820Z,8.70
2019-05-06T05:25:23.124Z,7.93
2019-05-06T05:27:53.329Z,8.00
2019-05-06T05:30:23.625Z,8.10
2019-05-06T05:32:53.856Z,8.60
2019-05-06T05:35:24.112Z,8.90
2019-05-06T05:37:54.125Z,8.33
2019-05-06T05:40:27.254Z,8.80
2019-05-06T05:43:11.733Z,8.37
2019-05-06T05:45:42.409Z,8.23
2019-05-06T05:48:32.761Z,8.83
2019-05-06T05:51:03.454Z,7.67
2019-05-06T05:53:33.902Z,8.03
2019-05-06T05:56:04.208Z,7.93
2019-05-06T05:58:34.770Z,7.50
2019-05-06T06:01:05.243Z,7.40
2019-05-06T06:03:35.326Z,7.50
2019-05-06T06:06:05.362Z,7.13
2019-05-06T06:08:36.970Z,7.70
2019-05-06T06:11:16.423Z,8.27
2019-05-06T06:13:46.663Z,7.97
2019-05-06T06:16:30.150Z,7.50
2019-05-06T06:19:25.562Z,8.17
2019-05-06T06:21:59.946Z,8.30
2019-05-06T06:24:32.502Z,8.63
2019-05-06T06:27:03.235Z,8.20
2019-05-06T06:29:33.380Z,7.77
2019-05-06T06:32:13.781Z,7.27
2019-05-06T06:35:10.680Z,7.50
2019-05-06T06:37:52.622Z,7.67
2019-05-06T06:40:25.011Z,8.17
2019-05-06T06:43:02.030Z,8.10
2019-05-06T06:45:32.570Z,7.77
2019-05-06T06:48:03.215Z,7.67
2019-05-06T06:50:33.623Z,7.47
2019-05-06T06:53:03.737Z,7.43
2019-05-06T06:55:34.048Z,8.20
2019-05-06T06:58:28.169Z,7.67
2019-05-06T07:01:16.402Z,7.57
2019-05-06T07:03:58.616Z,7.40
2019-05-06T07:06:39.915Z,6.67
2019-05-06T07:09:12.421Z,7.20
2019-05-06T07:11:42.835Z,6.87
2019-05-06T07:14:13.702Z,7.03
2019-05-06T07:16:44.048Z,6.70
2019-05-06T07:19:16.383Z,6.77
2019-05-06T07:21:52.273Z,7.27
2019-05-06T07:24:22.945Z,6.50
2019-05-06T07:26:58.220Z,7.50
2019-05-06T07:29:28.364Z,7.17
2019-05-06T07:31:58.437Z,7.23
2019-05-06T07:34:28.454Z,7.10
2019-05-06T07:36:58.584Z,6.70
2019-05-06T07:39:28.612Z,6.93
2019-05-06T07:42:02.304Z,7.07
2019-05-06T07:44:54.208Z,7.17
2019-05-06T07:47:29.332Z,6.60
2019-05-06T07:49:59.378Z,6.50
2019-05-06T07:52:29.425Z,7.17
2019-05-06T07:54:59.571Z,6.30
2019-05-06T07:57:29.637Z,7.07
2019-05-06T08:00:00.114Z,7.23
2019-05-06T08:02:31.973Z,6.87
2019-05-06T08:05:02.640Z,7.07
2019-05-06T08:07:33.360Z,7.30
2019-05-06T08:10:03.468Z,7.13
2019-05-06T08:12:33.586Z,7.27
2019-05-06T08:15:05.656Z,7.07
2019-05-06T08:17:42.384Z,7.90
2019-05-06T08:20:12.998Z,7.30
2019-05-06T08:23:08.305Z,7.90
2019-05-06T08:25:42.480Z,8.10
2019-05-06T08:28:13.393Z,6.87
2019-05-06T08:30:43.747Z,6.97
2019-05-06T08:33:14.049Z,7.90
2019-05-06T08:35:44.205Z,7.27
2019-05-06T08:38:14.894Z,8.10
2019-05-06T08:40:45.088Z,7.40
2019-05-06T08:43:15.190Z,7.60
2019-05-06T08:45:45.303Z,7.23
2019-05-06T08:48:15.359Z,6.47
2019-05-06T08:50:56.653Z,7.40
2019-05-06T08:53:32.934Z,7.23
2019-05-06T08:56:04.540Z,7.17
2019-05-06T08:58:47.747Z,7.33
2019-05-06T09:01:28.292Z,6.67
2019-05-06T09:04:08.849Z,7.57
2019-05-06T09:06:33.406Z,7.67
2019-05-06T09:09:02.462Z,7.70
2019-05-06T09:11:32.752Z,7.73
2019-05-06T09:14:03.545Z,7.70
2019-05-06T09:16:33.850Z,8.30
2019-05-06T09:19:04.730Z,7.50
2019-05-06T09:21:34.869Z,7.13
2019-05-06T09:24:05.255Z,7.60
2019-05-06T09:26:45.268Z,7.80
2019-05-06T09:29:37.103Z,7.73
2019-05-06T09:32:13.907Z,7.40
2019-05-06T09:34:55.231Z,7.80
2019-05-06T09:37:25.406Z,7.10
2019-05-06T09:39:55.601Z,6.93
2019-05-06T09:42:25.823Z,7.13
2019-05-06T09:44:55.926Z,6.00
2019-05-06T09:47:37.101Z,6.60
2019-05-06T09:50:12.710Z,6.47
2019-05-06T09:52:43.086Z,6.13
2019-05-06T09:55:24.722Z,6.20
2019-05-06T09:58:03.453Z,6.40
2019-05-06T10:00:36.584Z,6.63
2019-05-06T10:03:07.330Z,7.10
2019-05-06T10:05:37.411Z,6.43
2019-05-06T10:08:07.683Z,6.97
2019-05-06T10:10:37.862Z,7.83
2019-05-06T10:13:07.919Z,6.93
2019-05-06T10:15:38.074Z,6.93
2019-05-06T10:18:08.726Z,6.90
2019-05-06T10:20:42.613Z,7.47
2019-05-06T10:23:13.961Z,6.90
2019-05-06T10:25:44.476Z,7.03
2019-05-06T10:28:39.261Z,7.53
2019-05-06T10:31:12.739Z,7.40
2019-05-06T10:34:03.374Z,7.87
2019-05-06T10:36:46.270Z,7.30
2019-05-06T10:39:19.475Z,6.97
2019-05-06T10:41:55.780Z,7.03
2019-05-06T10:44:42.862Z,7.53
2019-05-06T10:47:12.495Z,8.07
2019-05-06T10:49:42.701Z,8.03
2019-05-06T10:52:21.874Z,8.40
2019-05-06T10:54:52.245Z,8.10
2019-05-06T10:57:35.988Z,8.73
2019-05-06T11:00:07.423Z,7.97
2019-05-06T11:02:49.172Z,8.20
2019-05-06T11:05:19.518Z,8.13
2019-05-06T11:07:52.020Z,7.87
2019-05-06T11:10:27.745Z,7.10
2019-05-06T11:12:53.331Z,7.87
2019-05-06T11:15:23.546Z,7.97
2019-05-06T11:17:53.885Z,7.67
2019-05-06T11:20:24.336Z,7.40
2019-05-06T11:22:54.501Z,7.43
2019-05-06T11:25:24.736Z,6.80
2019-05-06T11:27:54.861Z,6.80
2019-05-06T11:30:44.121Z,6.93
2019-05-06T11:33:26.797Z,7.70
2019-05-06T11:36:00.447Z,7.13
2019-05-06T11:38:32.242Z,6.90
2019-05-06T11:41:02.745Z,6.83
2019-05-06T11:43:32.867Z,6.60
2019-05-06T11:46:03.070Z,6.90
2019-05-06T11:48:33.375Z,7.07
2019-05-06T11:51:05.110Z,6.17
2019-05-06T11:53:35.157Z,6.43
2019-05-06T11:56:05.292Z,6.50
2019-05-06T11:58:43.181Z,7.20
2019-05-06T12:01:26.315Z,6.70
2019-05-06T12:03:56.378Z,6.23
2019-05-06T12:06:26.440Z,7.30
2019-05-06T12:08:56.622Z,7.67
2019-05-06T12:11:26.690Z,6.83
2019-05-06T12:13:56.724Z,7.47
2019-05-06T12:16:26.933Z,6.80
2019-05-06T12:18:59.751Z,6.67
2019-05-06T12:21:29.120Z,6.77
2019-05-06T12:23:59.517Z,6.57
2019-05-06T12:26:32.034Z,6.57
2019-05-06T12:29:02.287Z,6.33
2019-05-06T12:31:33.022Z,6.50
2019-05-06T12:34:03.257Z,7.20
2019-05-06T12:36:33.527Z,7.30
2019-05-06T12:39:23.081Z,7.40
2019-05-06T12:42:03.329Z,6.93
2019-05-06T12:45:03.512Z,7.30
2019-05-06T12:48:03.028Z,7.57
2019-05-06T12:50:33.423Z,8.47
2019-05-06T12:53:04.123Z,7.90
2019-05-06T12:55:34.247Z,8.13
2019-05-06T12:58:04.382Z,7.97
2019-05-06T13:00:34.814Z,8.20
2019-05-06T13:03:05.352Z,8.50
2019-05-06T13:05:35.504Z,9.57
2019-05-06T13:08:06.688Z,8.80
2019-05-06T13:10:37.098Z,9.90
2019-05-06T13:13:07.356Z,8.30
2019-05-06T13:15:37.627Z,7.50
2019-05-06T13:18:08.005Z,7.47
2019-05-06T13:20:38.594Z,6.20
2019-05-06T13:23:37.158Z,6.37
2019-05-06T13:26:07.384Z,6.30
2019-05-06T13:28:42.501Z,6.10
2019-05-06T13:31:20.493Z,6.47
2019-05-06T13:33:54.136Z,7.03
2019-05-06T13:36:22.938Z,6.60
2019-05-06T13:39:09.144Z,6.27
2019-05-06T13:41:25.149Z,6.60
2019-05-06T13:44:05.086Z,7.20
2019-05-06T13:46:38.905Z,7.03
2019-05-06T13:49:26.704Z,8.03
2019-05-06T13:52:03.637Z,8.33
2019-05-06T13:54:32.386Z,7.53
2019-05-06T13:57:02.936Z,7.67
2019-05-06T13:59:35.740Z,7.23
2019-05-06T14:02:39.828Z,6.73
2019-05-06T14:05:12.116Z,7.07
2019-05-06T14:07:43.252Z,7.43
2019-05-06T14:10:14.318Z,7.60
2019-05-06T14:12:44.368Z,7.80
2019-05-06T14:15:15.406Z,7.00
2019-05-06T14:17:45.826Z,7.43
2019-05-06T14:20:16.021Z,6.80
2019-05-06T14:22:46.111Z,7.07
2019-05-06T14:25:43.619Z,7.10
2019-05-06T14:28:22.021Z,7.10
2019-05-06T14:30:55.692Z,6.70
2019-05-06T14:33:25.975Z,6.87
2019-05-06T14:35:58.299Z,7.03
2019-05-06T14:38:28.618Z,7.60
2019-05-06T14:41:08.451Z,7.63
2019-05-06T14:43:39.169Z,6.60
2019-05-06T14:46:09.339Z,7.57
2019-05-06T14:48:39.429Z,8.20
2019-05-06T14:51:09.561Z,7.63
2019-05-06T14:53:39.596Z,7.70
2019-05-06T14:56:15.528Z,8.27
2019-05-06T14:59:03.785Z,7.60
2019-05-06T15:01:35.226Z,7.73
2019-05-06T15:04:06.334Z,7.90
2019-05-06T15:06:36.479Z,9.03
2019-05-06T15:09:08.943Z,8.60
2019-05-06T15:11:39.231Z,9.90
2019-05-06T15:14:09.371Z,10.57
2019-05-06T15:16:39.489Z,9.03
2019-05-06T15:19:09.542Z,8.70
2019-05-06T15:21:42.512Z,9.63
2019-05-06T15:24:13.853Z,8.57
2019-05-06T15:26:43.378Z,9.13
2019-05-06T15:29:13.522Z,8.90
2019-05-06T15:32:05.662Z,9.60
2019-05-06T15:34:44.492Z,8.80
2019-05-06T15:37:34.755Z,8.63
2019-05-06T15:40:06.440Z,8.23
2019-05-06T15:42:36.591Z,7.73
2019-05-06T15:45:06.923Z,7.93
2019-05-06T15:47:37.062Z,8.00
2019-05-06T15:50:07.996Z,8.33
2019-05-06T15:52:38.467Z,7.67
2019-05-06T15:55:08.683Z,8.80
2019-05-06T15:57:38.754Z,8.60
2019-05-06T16:00:13.019Z,9.37
2019-05-06T16:02:43.257Z,8.47
2019-05-06T16:05:19.448Z,9.07
2019-05-06T16:07:45.547Z,8.97
2019-05-06T16:10:17.281Z,9.53
2019-05-06T16:12:48.974Z,10.53
2019-05-06T16:15:19.307Z,9.83
2019-05-06T16:17:49.505Z,9.53
2019-05-06T16:20:22.068Z,10.63
2019-05-06T16:23:03.249Z,10.47
2019-05-06T16:25:33.028Z,10.33
2019-05-06T16:28:03.240Z,10.30
2019-05-06T16:30:33.938Z,10.30
2019-05-06T16:33:04.499Z,10.63
2019-05-06T16:35:34.690Z,10.57
2019-05-06T16:38:05.121Z,10.77
2019-05-06T16:40:35.454Z,10.90
2019-05-06T16:43:05.617Z,10.47
2019-05-06T16:45:36.767Z,10.37
2019-05-06T16:48:09.026Z,11.23
2019-05-06T16:50:39.167Z,10.83
2019-05-06T16:53:09.418Z,10.90
2019-05-06T16:56:13.014Z,10.40
2019-05-06T16:58:49.321Z,9.47
2019-05-06T17:01:19.554Z,9.50
2019-05-06T17:04:20.577Z,10.27
2019-05-06T17:06:52.409Z,10.50
2019-05-06T17:09:27.056Z,10.13
2019-05-06T17:11:54.559Z,10.10
2019-05-06T17:14:24.654Z,9.47
2019-05-06T17:16:54.705Z,10.33
2019-05-06T17:19:24.856Z,10.13
2019-05-06T17:21:55.103Z,10.23
2019-05-06T17:24:25.326Z,10.27
2019-05-06T17:26:56.513Z,10.93
2019-05-06T17:30:00.982Z,9.23
2019-05-06T17:32:36.845Z,9.67
2019-05-06T17:35:07.515Z,9.37
2019-05-06T17:38:03.508Z,10.00
2019-05-06T17:40:33.798Z,10.70
2019-05-06T17:43:04.099Z,10.97
2019-05-06T17:45:57.516Z,12.27
2019-05-06T17:48:33.201Z,11.07
2019-05-06T17:51:13.323Z,12.10
2019-05-06T17:53:44.543Z,12.10
2019-05-06T17:56:14.735Z,11.50
2019-05-06T17:58:44.902Z,10.87
2019-05-06T18:01:17.084Z,10.50
2019-05-06T18:03:52.648Z,11.93
2019-05-06T18:06:23.289Z,11.67
2019-05-06T18:08:53.606Z,11.70
2019-05-06T18:11:23.777Z,12.77
2019-05-06T18:13:54.042Z,11.67
2019-05-06T18:16:24.324Z,11.07
2019-05-06T18:18:54.613Z,11.33
2019-05-06T18:21:25.472Z,11.30
2019-05-06T18:23:55.922Z,12.03
2019-05-06T18:26:26.155Z,11.23
2019-05-06T18:28:58.457Z,11.73
2019-05-06T18:31:29.012Z,11.80
2019-05-06T18:33:59.295Z,12.67
2019-05-06T18:36:29.598Z,11.80
2019-05-06T18:39:00.020Z,9.90
2019-05-06T18:41:32.932Z,9.93
2019-05-06T18:44:03.234Z,10.60
2019-05-06T18:46:33.900Z,10.33
2019-05-06T18:49:04.468Z,10.27
2019-05-06T18:51:34.920Z,9.97
2019-05-06T18:54:06.255Z,9.57
2019-05-06T18:56:39.312Z,9.77
2019-05-06T18:59:13.859Z,9.20
2019-05-06T19:01:44.081Z,9.40
2019-05-06T19:04:19.718Z,9.07
2019-05-06T19:06:49.832Z,8.83
2019-05-06T19:09:25.926Z,9.10
2019-05-06T19:11:56.159Z,8.70
2019-05-06T19:14:26.777Z,7.53
2019-05-06T19:16:57.019Z,7.60
2019-05-06T19:19:27.446Z,8.13
2019-05-06T19:21:58.376Z,7.50
2019-05-06T19:24:28.685Z,8.90
2019-05-06T19:26:58.896Z,8.13
2019-05-06T19:29:29.115Z,7.70
2019-05-06T19:31:59.399Z,7.67
2019-05-06T19:34:29.616Z,7.50
2019-05-06T19:37:02.274Z,7.50
2019-05-06T19:39:32.558Z,7.70
2019-05-06T19:42:05.209Z,6.97
2019-05-06T19:44:35.218Z,7.30
2019-05-06T19:47:05.350Z,7.27
2019-05-06T19:49:35.606Z,8.03
2019-05-06T19:52:05.761Z,8.00
2019-05-06T19:54:35.851Z,8.00
2019-05-06T19:57:05.975Z,8.00
2019-05-06T19:59:36.112Z,8.33
2019-05-06T20:02:07.609Z,7.63
2019-05-06T20:04:39.122Z,8.00
2019-05-06T20:07:29.290Z,8.63
2019-05-06T20:10:19.403Z,8.47
2019-05-06T20:13:01.740Z,9.90
2019-05-06T20:15:35.404Z,9.17
2019-05-06T20:18:08.203Z,8.83
2019-05-06T20:20:39.419Z,8.57
2019-05-06T20:23:12.360Z,7.27
2019-05-06T20:25:44.910Z,6.90
2019-05-06T20:28:15.586Z,7.83
2019-05-06T20:30:46.973Z,7.80
2019-05-06T20:33:17.736Z,8.17
2019-05-06T20:35:48.665Z,8.00
2019-05-06T20:38:18.909Z,8.30
2019-05-06T20:40:50.045Z,10.20
2019-05-06T20:43:23.913Z,11.00
2019-05-06T20:45:56.148Z,11.03
2019-05-06T20:48:28.119Z,9.97
2019-05-06T20:50:58.752Z,9.90
2019-05-06T20:53:29.334Z,9.70
2019-05-06T20:56:00.149Z,10.53
2019-05-06T20:58:30.758Z,10.47
2019-05-06T21:01:03.024Z,10.80
2019-05-06T21:03:33.602Z,11.47
2019-05-06T21:06:04.330Z,11.27
2019-05-06T21:08:35.015Z,11.40
2019-05-06T21:11:07.400Z,14.00
2019-05-06T21:13:38.142Z,11.53
2019-05-06T21:16:08.626Z,12.23
2019-05-06T21:18:38.788Z,11.37
2019-05-06T21:21:08.932Z,12.07
2019-05-06T21:23:39.514Z,11.03
2019-05-06T21:26:09.723Z,11.03
2019-05-06T21:28:39.749Z,11.60
2019-05-06T21:31:09.806Z,12.73
2019-05-06T21:33:39.850Z,12.10
2019-05-06T21:36:12.261Z,11.67
2019-05-06T21:38:42.718Z,11.63
2019-05-06T21:41:13.003Z,10.93
2019-05-06T21:43:49.456Z,11.40
2019-05-06T21:46:14.837Z,11.23
2019-05-06T21:48:44.893Z,11.90
2019-05-06T21:51:18.378Z,10.70
2019-05-06T21:53:48.498Z,10.70
2019-05-06T21:56:22.609Z,10.97
2019-05-06T21:58:52.788Z,10.30
2019-05-06T22:01:23.376Z,10.23
2019-05-06T22:03:53.405Z,10.00
2019-05-06T22:06:23.528Z,9.60
2019-05-06T22:08:53.593Z,10.03
2019-05-06T22:11:24.540Z,9.70
2019-05-06T22:14:01.159Z,9.90
2019-05-06T22:16:26.638Z,9.63
2019-05-06T22:18:56.691Z,9.47
2019-05-06T22:21:26.801Z,9.47
2019-05-06T22:24:04.233Z,9.70
2019-05-06T22:26:32.818Z,8.90
2019-05-06T22:29:02.933Z,9.40
2019-05-06T22:31:33.292Z,8.93
2019-05-06T22:34:03.578Z,8.60
2019-05-06T22:36:33.698Z,8.90
2019-05-06T22:39:05.236Z,8.40
2019-05-06T22:41:35.302Z,9.07
2019-05-06T22:44:13.809Z,8.87
2019-05-06T22:46:39.032Z,8.50
2019-05-06T22:49:09.131Z,8.53
2019-05-06T22:51:39.284Z,8.83
2019-05-06T22:54:09.367Z,9.00
2019-05-06T22:56:39.512Z,9.00
2019-05-06T22:59:09.562Z,8.40
2019-05-06T23:01:57.604Z,8.80
2019-05-06T23:04:29.396Z,8.87
2019-05-06T23:06:59.533Z,8.63
2019-05-06T23:09:29.575Z,8.90
2019-05-06T23:11:59.660Z,8.90
2019-05-06T23:14:34.587Z,9.37
2019-05-06T23:17:02.899Z,9.40
2019-05-06T23:19:33.150Z,9.57
2019-05-06T23:22:04.280Z,9.87
2019-05-06T23:24:34.468Z,10.37
2019-05-06T23:27:04.706Z,11.03
2019-05-06T23:29:34.749Z,11.20
2019-05-06T23:32:04.894Z,11.27
2019-05-06T23:34:35.229Z,11.17
2019-05-06T23:37:22.972Z,12.13
2019-05-06T23:40:42.131Z,11.60
2019-05-06T23:43:47.845Z,12.53
2019-05-06T23:46:54.116Z,12.67
2019-05-06T23:50:00.263Z,13.77
2019-05-06T23:53:06.430Z,12.80
2019-05-06T23:56:13.160Z,14.40
2019-05-06T23:58:43.689Z,14.00
